Time;durP1;ratioP1;P1;durP2;ratioP2;P2;SDS_P1;SDS_P2;PMS_P1;PMS_P2;Temp;Humidity;BMP_temperature;BMP_pressure;BME280_temperature;BME280_humidity;BME280_pressure;Samples;Min_cycle;Max_cycle;Signal;HPM_P1;HPM_P2
2023/12/03 00:00:08;;;;;;;15.85;9.40;;;3.90;99.90;;;;;;5018271;28;20180;-72
2023/12/03 00:02:36;;;;;;;14.85;9.90;;;4.00;99.90;;;;;;5051758;28;20212;-72
2023/12/03 00:05:03;;;;;;;16.83;10.95;;;4.00;99.90;;;;;;5034340;28;20575;-71
2023/12/03 00:07:29;;;;;;;13.30;9.32;;;4.00;99.90;;;;;;5033951;28;20173;-72
2023/12/03 00:09:55;;;;;;;13.88;8.85;;;4.00;99.90;;;;;;5045914;28;20237;-79
2023/12/03 00:12:21;;;;;;;15.27;10.25;;;4.00;99.90;;;;;;5047732;28;20244;-79
2023/12/03 00:14:47;;;;;;;12.00;8.17;;;4.00;99.90;;;;;;4998801;28;20205;-80
2023/12/03 00:17:13;;;;;;;14.90;9.47;;;4.00;99.90;;;;;;5014710;28;20587;-80
2023/12/03 00:19:42;;;;;;;14.30;9.93;;;4.00;99.90;;;;;;5040094;28;20177;-80
2023/12/03 00:22:08;;;;;;;13.13;9.38;;;4.00;99.90;;;;;;5014088;28;20659;-80
2023/12/03 00:24:34;;;;;;;14.73;9.10;;;4.00;99.90;;;;;;5014228;28;20621;-80
2023/12/03 00:27:01;;;;;;;14.15;9.93;;;4.00;99.90;;;;;;5028515;28;20214;-81
2023/12/03 00:29:26;;;;;;;14.20;9.13;;;3.90;99.90;;;;;;5017364;28;20181;-80
2023/12/03 00:31:52;;;;;;;15.10;9.27;;;3.90;99.90;;;;;;5020671;28;20208;-79
2023/12/03 00:34:18;;;;;;;12.43;8.27;;;3.90;99.90;;;;;;5039959;28;20180;-79
2023/12/03 00:36:44;;;;;;;14.20;9.37;;;3.90;99.90;;;;;;5043453;28;20181;-79
2023/12/03 00:39:10;;;;;;;13.75;9.35;;;3.90;99.90;;;;;;5053004;28;20595;-79
2023/12/03 00:41:36;;;;;;;12.48;8.95;;;3.90;99.90;;;;;;5022632;28;20281;-79
2023/12/03 00:44:01;;;;;;;14.20;9.10;;;3.90;99.90;;;;;;5011514;28;20252;-79
2023/12/03 00:46:27;;;;;;;12.80;9.03;;;3.90;99.90;;;;;;5032112;28;20554;-79
2023/12/03 00:48:53;;;;;;;15.20;9.50;;;3.90;99.90;;;;;;5013793;28;20588;-79
2023/12/03 00:51:19;;;;;;;13.63;9.60;;;3.90;99.90;;;;;;5047368;28;21188;-79
2023/12/03 00:53:45;;;;;;;12.00;8.37;;;3.80;99.90;;;;;;5029652;28;20212;-78
2023/12/03 00:56:10;;;;;;;12.60;9.17;;;3.80;99.90;;;;;;5038401;28;20223;-78
2023/12/03 00:58:37;;;;;;;17.83;11.88;;;3.80;99.90;;;;;;5005918;28;20177;-78
2023/12/03 01:01:04;;;;;;;21.67;12.65;;;3.90;99.90;;;;;;5007978;28;20216;-79
2023/12/03 01:03:32;;;;;;;18.70;10.50;;;3.90;99.90;;;;;;5050089;28;20184;-79
2023/12/03 01:05:58;;;;;;;12.73;8.50;;;3.90;99.90;;;;;;5051282;28;20218;-78
2023/12/03 01:08:24;;;;;;;15.67;9.87;;;3.90;99.90;;;;;;5023916;28;20565;-79
2023/12/03 01:10:49;;;;;;;13.77;10.10;;;3.90;99.90;;;;;;5017594;28;20603;-80
2023/12/03 01:13:15;;;;;;;13.13;9.10;;;3.90;99.90;;;;;;5025435;28;20300;-80
2023/12/03 01:15:43;;;;;;;10.47;7.37;;;3.90;99.90;;;;;;5038843;28;20226;-80
2023/12/03 01:18:10;;;;;;;13.05;9.60;;;3.90;99.90;;;;;;5041516;28;20177;-80
2023/12/03 01:20:38;;;;;;;11.80;8.40;;;4.00;99.90;;;;;;5034243;28;20169;-80
2023/12/03 01:23:04;;;;;;;15.27;9.35;;;4.00;99.90;;;;;;5016520;28;20250;-80
2023/12/03 01:25:30;;;;;;;10.90;7.87;;;4.00;99.90;;;;;;5015302;28;20672;-81
2023/12/03 01:27:56;;;;;;;11.63;7.05;;;4.10;99.90;;;;;;5035793;28;20173;-79
2023/12/03 01:30:22;;;;;;;12.53;8.57;;;4.10;99.90;;;;;;5026211;28;20189;-80
2023/12/03 01:32:48;;;;;;;12.93;8.27;;;4.10;99.90;;;;;;5024677;28;21235;-79
2023/12/03 01:35:14;;;;;;;12.77;8.73;;;4.20;99.90;;;;;;5007943;28;20608;-80
2023/12/03 01:37:39;;;;;;;10.68;7.05;;;4.20;99.90;;;;;;5005522;28;20236;-80
2023/12/03 01:40:06;;;;;;;14.03;9.03;;;4.30;99.90;;;;;;5027418;28;20234;-79
2023/12/03 01:42:33;;;;;;;12.18;8.55;;;4.30;99.90;;;;;;5039471;28;20291;-80
2023/12/03 01:44:59;;;;;;;11.25;7.32;;;4.30;99.90;;;;;;5001897;28;20184;-80
2023/12/03 01:47:25;;;;;;;11.10;7.97;;;4.30;99.90;;;;;;5016595;28;20181;-80
2023/12/03 01:49:51;;;;;;;11.50;8.53;;;4.40;99.90;;;;;;5020718;28;20209;-79
2023/12/03 01:52:17;;;;;;;13.50;9.15;;;4.40;99.90;;;;;;5025042;28;20759;-79
2023/12/03 01:54:44;;;;;;;11.80;8.60;;;4.30;99.90;;;;;;5031327;28;20577;-80
2023/12/03 01:57:10;;;;;;;11.45;8.10;;;4.30;99.90;;;;;;5042413;28;20610;-80
2023/12/03 01:59:36;;;;;;;13.95;8.98;;;4.40;99.90;;;;;;5049391;28;20188;-80
2023/12/03 02:02:05;;;;;;;16.00;9.48;;;4.40;99.90;;;;;;5029470;28;20706;-80
2023/12/03 02:04:30;;;;;;;11.40;9.15;;;4.40;99.90;;;;;;5029760;28;20256;-79
2023/12/03 02:06:56;;;;;;;12.80;9.47;;;4.40;99.90;;;;;;5030857;28;20208;-79
2023/12/03 02:09:23;;;;;;;12.57;8.90;;;4.30;99.90;;;;;;5029950;28;20186;-78
2023/12/03 02:11:49;;;;;;;12.40;9.38;;;4.30;99.90;;;;;;5030866;28;20971;-78
2023/12/03 02:14:14;;;;;;;16.13;10.80;;;4.30;99.90;;;;;;5045647;28;20185;-78
2023/12/03 02:16:45;;;;;;;15.60;11.10;;;4.20;99.90;;;;;;5020677;28;20584;-78
2023/12/03 02:19:11;;;;;;;13.57;9.40;;;4.10;99.90;;;;;;4999401;28;20178;-78
2023/12/03 02:21:36;;;;;;;12.07;9.07;;;4.00;99.90;;;;;;5029085;28;20604;-79
2023/12/03 02:24:02;;;;;;;11.47;8.67;;;4.00;99.90;;;;;;5029077;28;20728;-79
2023/12/03 02:26:28;;;;;;;14.90;9.07;;;4.00;99.90;;;;;;5046228;28;20636;-79
2023/12/03 02:28:54;;;;;;;13.80;9.00;;;4.00;99.90;;;;;;5022652;28;20599;-80
2023/12/03 02:31:19;;;;;;;12.90;9.00;;;4.00;99.90;;;;;;5030608;28;20193;-80
2023/12/03 02:33:54;;;;;;;10.67;8.13;;;4.00;99.90;;;;;;5027944;28;20174;-80
2023/12/03 02:36:20;;;;;;;11.25;7.82;;;4.00;99.90;;;;;;5032087;28;20165;-80
2023/12/03 02:38:46;;;;;;;10.50;8.30;;;4.00;99.90;;;;;;5032270;28;20173;-80
2023/12/03 02:41:12;;;;;;;11.40;7.80;;;4.00;99.90;;;;;;5043915;28;20193;-79
2023/12/03 02:43:37;;;;;;;10.93;8.77;;;4.00;99.90;;;;;;5048529;28;20189;-79
2023/12/03 02:46:04;;;;;;;9.50;7.27;;;4.00;99.90;;;;;;5034514;28;20600;-79
2023/12/03 02:48:29;;;;;;;11.70;8.25;;;4.00;99.90;;;;;;5049154;28;20185;-79
2023/12/03 02:50:55;;;;;;;10.17;7.23;;;3.90;99.90;;;;;;5065901;28;20737;-79
2023/12/03 02:53:21;;;;;;;11.53;7.63;;;3.90;99.90;;;;;;5024163;28;20733;-80
2023/12/03 02:55:46;;;;;;;10.77;7.47;;;3.90;99.90;;;;;;5022720;28;20577;-80
2023/12/03 02:58:12;;;;;;;12.83;8.10;;;3.80;99.90;;;;;;5054149;28;20178;-80
2023/12/03 03:00:38;;;;;;;10.30;7.10;;;3.80;99.90;;;;;;5005773;28;20594;-80
2023/12/03 03:03:03;;;;;;;10.07;7.20;;;3.80;99.90;;;;;;5032228;28;20255;-80
2023/12/03 03:05:29;;;;;;;9.97;7.23;;;3.70;99.90;;;;;;5034331;28;20711;-80
2023/12/03 03:07:55;;;;;;;12.90;10.30;;;3.70;99.90;;;;;;5013209;28;20262;-80
2023/12/03 03:10:21;;;;;;;9.17;6.80;;;3.70;99.90;;;;;;5011570;28;20189;-80
2023/12/03 03:12:47;;;;;;;14.45;8.32;;;3.70;99.90;;;;;;5040809;28;20274;-80
2023/12/03 03:15:12;;;;;;;15.20;7.90;;;3.70;99.90;;;;;;5029098;28;20174;-80
2023/12/03 03:17:38;;;;;;;12.33;7.70;;;3.70;99.90;;;;;;5006389;28;20786;-79
2023/12/03 03:20:04;;;;;;;11.93;7.90;;;3.70;99.90;;;;;;5027095;28;20209;-79
2023/12/03 03:22:30;;;;;;;12.77;7.30;;;3.70;99.90;;;;;;5011946;28;20202;-79
2023/12/03 03:24:55;;;;;;;9.90;7.00;;;3.70;99.90;;;;;;5033312;28;20168;-79
2023/12/03 03:27:21;;;;;;;12.60;7.60;;;3.70;99.90;;;;;;5032765;28;20551;-79
2023/12/03 03:29:47;;;;;;;10.57;7.50;;;3.70;99.90;;;;;;5015086;28;20185;-79
2023/12/03 03:32:12;;;;;;;11.27;7.93;;;3.70;99.90;;;;;;5032880;28;20224;-79
2023/12/03 03:34:38;;;;;;;10.93;7.63;;;3.60;99.90;;;;;;5008485;28;20174;-79
2023/12/03 03:37:05;;;;;;;11.90;8.40;;;3.60;99.90;;;;;;5015154;28;20252;-79
2023/12/03 03:39:31;;;;;;;15.52;9.80;;;3.50;99.90;;;;;;5032663;28;20256;-79
2023/12/03 03:41:56;;;;;;;12.63;9.03;;;3.40;99.90;;;;;;5031312;28;20288;-79
2023/12/03 03:44:22;;;;;;;12.67;8.97;;;3.30;99.90;;;;;;5019072;28;20177;-79
2023/12/03 03:46:48;;;;;;;13.97;9.80;;;3.20;99.90;;;;;;5021662;28;20555;-78
2023/12/03 03:49:14;;;;;;;13.60;8.70;;;3.10;99.90;;;;;;5031922;28;20173;-78
2023/12/03 03:51:40;;;;;;;14.88;8.75;;;3.10;99.90;;;;;;5032186;28;20682;-78
2023/12/03 03:54:05;;;;;;;11.20;8.77;;;3.00;99.90;;;;;;5047586;28;20228;-78
2023/12/03 03:56:31;;;;;;;12.47;7.77;;;3.00;99.90;;;;;;5022665;28;20639;-78
2023/12/03 03:58:57;;;;;;;12.57;8.35;;;3.10;99.90;;;;;;5006859;28;20733;-78
2023/12/03 04:01:24;;;;;;;15.43;11.27;;;3.00;99.90;;;;;;5031848;28;20216;-78
2023/12/03 04:03:50;;;;;;;14.13;9.67;;;3.00;99.90;;;;;;5052156;28;20646;-78
2023/12/03 04:06:15;;;;;;;12.70;8.93;;;2.90;99.90;;;;;;5052307;28;20633;-78
2023/12/03 04:08:41;;;;;;;16.27;11.17;;;2.90;99.90;;;;;;5050920;28;20195;-78
2023/12/03 04:11:07;;;;;;;13.00;8.80;;;2.90;99.90;;;;;;5052000;28;20262;-78
2023/12/03 04:13:32;;;;;;;16.43;10.73;;;2.90;99.90;;;;;;5051644;28;20197;-78
2023/12/03 04:15:58;;;;;;;14.23;9.57;;;2.80;99.90;;;;;;5034064;28;20615;-78
2023/12/03 04:18:24;;;;;;;16.77;9.87;;;2.80;99.90;;;;;;5050654;28;20233;-79
2023/12/03 04:20:50;;;;;;;11.80;8.65;;;2.80;99.90;;;;;;5021815;28;20185;-78
2023/12/03 04:23:16;;;;;;;11.50;8.33;;;2.80;99.90;;;;;;5033694;28;20202;-79
2023/12/03 04:25:42;;;;;;;12.30;7.87;;;2.80;99.90;;;;;;5050404;28;20208;-79
2023/12/03 04:28:09;;;;;;;9.48;6.80;;;2.80;99.90;;;;;;5034048;28;20181;-78
2023/12/03 04:30:34;;;;;;;8.98;6.75;;;2.80;99.90;;;;;;5051882;28;20597;-77
2023/12/03 04:33:00;;;;;;;9.60;6.93;;;2.90;99.90;;;;;;5033641;28;20228;-78
2023/12/03 04:35:26;;;;;;;10.57;7.22;;;2.90;99.90;;;;;;5052041;28;20216;-78
2023/12/03 04:37:52;;;;;;;10.07;7.53;;;2.90;99.90;;;;;;5018150;28;20216;-78
2023/12/03 04:40:17;;;;;;;10.73;7.60;;;2.90;99.90;;;;;;5054745;28;20169;-78
2023/12/03 04:42:43;;;;;;;11.87;7.60;;;2.90;99.90;;;;;;5053822;28;20211;-78
2023/12/03 04:45:09;;;;;;;12.47;8.00;;;2.90;99.90;;;;;;5036153;28;20200;-79
2023/12/03 04:47:35;;;;;;;11.90;7.47;;;2.90;99.90;;;;;;5052120;28;20726;-79
2023/12/03 04:50:00;;;;;;;8.53;5.43;;;2.90;99.90;;;;;;5072608;28;20644;-79
2023/12/03 04:52:26;;;;;;;12.60;7.60;;;2.90;99.90;;;;;;5049820;28;20463;-79
2023/12/03 04:54:52;;;;;;;9.10;6.40;;;2.90;99.90;;;;;;5055081;28;21167;-79
2023/12/03 04:57:24;;;;;;;7.83;5.47;;;2.90;99.90;;;;;;5034493;28;20177;-79
2023/12/03 04:59:49;;;;;;;12.93;7.78;;;2.90;99.90;;;;;;5054253;28;20207;-79
2023/12/03 05:02:15;;;;;;;9.73;6.33;;;2.90;99.90;;;;;;5050114;28;20252;-79
2023/12/03 05:04:41;;;;;;;8.30;5.70;;;2.90;99.90;;;;;;5016851;28;20177;-79
2023/12/03 05:07:06;;;;;;;8.93;5.83;;;2.80;99.90;;;;;;5033444;28;20798;-79
2023/12/03 05:09:32;;;;;;;8.60;6.53;;;2.80;99.90;;;;;;5051006;28;20177;-79
2023/12/03 05:11:58;;;;;;;10.10;6.00;;;2.80;99.90;;;;;;5013076;28;20201;-79
2023/12/03 05:14:23;;;;;;;9.70;6.60;;;2.70;99.90;;;;;;5028538;28;20583;-79
2023/12/03 05:16:49;;;;;;;10.20;7.23;;;2.70;99.90;;;;;;5050858;28;20223;-79
2023/12/03 05:19:15;;;;;;;11.40;6.13;;;2.70;99.90;;;;;;5033395;28;20622;-79
2023/12/03 05:21:40;;;;;;;13.23;7.10;;;2.70;99.90;;;;;;5032974;28;20197;-79
2023/12/03 05:24:06;;;;;;;10.53;7.23;;;2.80;99.90;;;;;;5016434;28;20219;-79
2023/12/03 05:26:32;;;;;;;8.80;5.97;;;2.80;99.90;;;;;;5032801;28;20173;-79
2023/12/03 05:28:57;;;;;;;10.90;6.87;;;2.80;99.90;;;;;;5032761;28;20273;-79
2023/12/03 05:31:23;;;;;;;9.27;6.10;;;2.80;99.90;;;;;;5050897;28;20211;-79
2023/12/03 05:33:49;;;;;;;8.33;6.33;;;2.90;99.90;;;;;;5016351;28;20682;-79
2023/12/03 05:36:22;;;;;;;10.47;6.90;;;2.80;99.90;;;;;;5053799;28;20180;-79
2023/12/03 05:38:49;;;;;;;8.55;5.95;;;2.80;99.90;;;;;;5050333;28;20571;-79
2023/12/03 05:41:15;;;;;;;8.07;5.55;;;2.80;99.90;;;;;;5050703;28;20616;-79
2023/12/03 05:43:41;;;;;;;8.33;5.67;;;2.70;99.90;;;;;;5050288;28;20177;-79
2023/12/03 05:46:07;;;;;;;9.73;7.17;;;2.70;99.90;;;;;;5050866;28;21128;-79
2023/12/03 05:48:33;;;;;;;10.30;6.37;;;2.80;99.90;;;;;;5015959;28;20200;-79
2023/12/03 05:50:58;;;;;;;8.60;5.53;;;2.80;99.90;;;;;;5032605;28;20199;-79
2023/12/03 05:53:24;;;;;;;9.43;6.07;;;2.80;99.90;;;;;;5016006;28;20303;-79
2023/12/03 05:55:50;;;;;;;6.33;4.77;;;2.80;99.90;;;;;;5016233;28;20646;-78
2023/12/03 05:58:15;;;;;;;7.80;5.37;;;2.80;99.90;;;;;;5016242;28;20739;-78
2023/12/03 06:00:41;;;;;;;9.43;6.47;;;2.80;99.90;;;;;;5032559;28;20173;-80
2023/12/03 06:03:07;;;;;;;8.67;5.70;;;2.70;99.90;;;;;;5046047;28;20213;-79
2023/12/03 06:05:33;;;;;;;10.00;5.90;;;2.80;99.90;;;;;;5012986;28;20178;-79
2023/12/03 06:07:58;;;;;;;8.63;6.10;;;2.70;99.90;;;;;;5047151;28;20527;-79
2023/12/03 06:10:24;;;;;;;10.30;6.67;;;2.70;99.90;;;;;;5029694;28;21215;-79
2023/12/03 06:12:50;;;;;;;10.10;5.80;;;2.70;99.90;;;;;;5029231;28;20205;-79
2023/12/03 06:15:15;;;;;;;7.40;5.60;;;2.70;99.90;;;;;;5016550;28;20219;-79
2023/12/03 06:17:41;;;;;;;8.30;5.40;;;2.70;99.90;;;;;;5024603;28;20205;-79
2023/12/03 06:20:08;;;;;;;10.73;6.27;;;2.70;99.90;;;;;;5016660;28;20252;-79
2023/12/03 06:22:35;;;;;;;7.80;5.85;;;2.70;99.90;;;;;;5040419;28;20189;-79
2023/12/03 06:25:01;;;;;;;10.05;6.78;;;2.60;99.90;;;;;;5054049;28;20206;-74
2023/12/03 06:27:26;;;;;;;8.10;5.63;;;2.60;99.90;;;;;;5035861;28;20181;-73
2023/12/03 06:29:52;;;;;;;8.80;5.70;;;2.60;99.90;;;;;;5019189;28;20534;-76
2023/12/03 06:32:18;;;;;;;10.20;5.60;;;2.60;99.90;;;;;;5019411;28;20200;-74
2023/12/03 06:34:43;;;;;;;7.37;6.00;;;2.60;99.90;;;;;;5035550;28;20188;-73
2023/12/03 06:37:09;;;;;;;10.27;7.00;;;2.60;99.90;;;;;;5053671;28;20195;-75
2023/12/03 06:39:35;;;;;;;10.60;6.43;;;2.60;99.90;;;;;;5053583;28;20185;-74
2023/12/03 06:42:01;;;;;;;13.67;7.00;;;2.60;99.90;;;;;;5052193;28;20223;-74
2023/12/03 06:44:27;;;;;;;12.05;7.07;;;2.50;99.90;;;;;;5035512;28;20550;-74
2023/12/03 06:46:53;;;;;;;15.10;7.80;;;2.50;99.90;;;;;;5035511;28;20177;-74
2023/12/03 06:49:19;;;;;;;10.23;7.03;;;2.50;99.90;;;;;;5019142;28;20275;-73
2023/12/03 06:51:44;;;;;;;11.60;7.95;;;2.50;99.90;;;;;;5051526;28;20196;-74
2023/12/03 06:54:10;;;;;;;11.50;6.90;;;2.40;99.90;;;;;;5035442;28;20181;-74
2023/12/03 06:56:35;;;;;;;11.20;7.70;;;2.40;99.90;;;;;;5019120;28;20230;-74
2023/12/03 06:59:02;;;;;;;12.70;7.33;;;2.40;99.90;;;;;;5035293;28;20638;-73
2023/12/03 07:01:28;;;;;;;12.10;8.77;;;2.30;99.90;;;;;;5035350;28;20291;-73
2023/12/03 07:03:53;;;;;;;11.60;8.03;;;2.30;99.90;;;;;;5035089;28;20774;-73
2023/12/03 07:06:19;;;;;;;12.10;7.40;;;2.30;99.90;;;;;;5035310;28;20173;-73
2023/12/03 07:08:45;;;;;;;11.23;7.23;;;2.20;99.90;;;;;;5035076;28;20538;-73
2023/12/03 07:11:12;;;;;;;11.87;7.33;;;2.20;99.90;;;;;;5035140;28;20204;-74
2023/12/03 07:13:38;;;;;;;9.95;6.95;;;2.20;99.90;;;;;;5052747;28;20284;-74
2023/12/03 07:16:05;;;;;;;9.23;6.77;;;2.20;99.90;;;;;;5035044;28;20334;-74
2023/12/03 07:18:31;;;;;;;10.88;7.10;;;2.20;99.90;;;;;;5052952;28;20579;-74
2023/12/03 07:20:57;;;;;;;12.47;7.73;;;2.20;99.90;;;;;;5034811;28;20631;-74
2023/12/03 07:23:22;;;;;;;10.67;7.60;;;2.20;99.90;;;;;;5034249;28;20173;-74
2023/12/03 07:25:48;;;;;;;9.70;6.57;;;2.20;99.90;;;;;;5051471;28;20185;-73
2023/12/03 07:28:14;;;;;;;9.40;5.90;;;2.30;99.90;;;;;;5035041;28;20550;-73
2023/12/03 07:30:39;;;;;;;13.40;8.77;;;2.30;99.90;;;;;;5034905;28;20666;-74
2023/12/03 07:33:05;;;;;;;13.00;9.00;;;2.40;99.90;;;;;;5034451;28;20208;-74
2023/12/03 07:35:30;;;;;;;12.50;8.90;;;2.40;99.90;;;;;;5046202;28;20181;-74
2023/12/03 07:37:56;;;;;;;11.47;7.07;;;2.40;99.90;;;;;;5049817;28;20516;-74
2023/12/03 07:40:22;;;;;;;13.70;9.00;;;2.40;99.90;;;;;;5047416;28;20174;-74
2023/12/03 07:42:47;;;;;;;11.60;6.87;;;2.40;99.90;;;;;;5032430;28;20193;-75
2023/12/03 07:45:13;;;;;;;13.30;6.77;;;2.40;99.90;;;;;;4998371;28;20574;-74
2023/12/03 07:47:39;;;;;;;13.57;8.73;;;2.50;99.90;;;;;;5032342;28;20524;-74
2023/12/03 07:50:05;;;;;;;10.93;7.37;;;2.50;99.90;;;;;;5032328;28;20174;-74
2023/12/03 07:52:31;;;;;;;11.90;6.40;;;2.50;99.90;;;;;;5030833;28;20212;-74
2023/12/03 07:54:56;;;;;;;11.67;7.40;;;2.50;99.90;;;;;;5032713;28;20639;-77
2023/12/03 07:57:28;;;;;;;13.90;7.53;;;2.50;99.90;;;;;;5028943;28;20173;-77
2023/12/03 07:59:54;;;;;;;11.35;6.68;;;2.40;99.90;;;;;;5031077;28;20177;-77
2023/12/03 08:02:19;;;;;;;11.57;7.20;;;2.40;99.90;;;;;;5006103;28;20710;-77
2023/12/03 08:04:45;;;;;;;10.20;7.80;;;2.40;99.90;;;;;;5011851;28;20185;-77
2023/12/03 08:07:11;;;;;;;9.83;6.40;;;2.40;99.90;;;;;;5014529;28;20755;-77
2023/12/03 08:09:36;;;;;;;11.40;7.07;;;2.40;99.90;;;;;;5023184;28;20186;-78
2023/12/03 08:12:02;;;;;;;10.40;8.27;;;2.40;99.90;;;;;;5022074;28;20205;-77
2023/12/03 08:14:28;;;;;;;12.10;8.17;;;2.40;99.90;;;;;;5014047;28;20543;-77
2023/12/03 08:16:53;;;;;;;13.17;7.77;;;2.40;99.90;;;;;;5032210;28;20591;-77
2023/12/03 08:19:19;;;;;;;13.27;8.13;;;2.40;99.90;;;;;;5031921;28;20186;-76
2023/12/03 08:21:47;;;;;;;12.47;7.70;;;2.40;99.90;;;;;;5017719;28;20198;-77
2023/12/03 08:24:13;;;;;;;11.13;8.10;;;2.40;99.90;;;;;;5024587;28;20629;-77
2023/12/03 08:26:38;;;;;;;11.18;6.95;;;2.40;99.90;;;;;;5022105;28;20261;-77
2023/12/03 08:29:05;;;;;;;12.43;8.30;;;2.40;99.90;;;;;;5025462;28;20590;-77
2023/12/03 08:31:30;;;;;;;9.20;6.70;;;2.50;99.90;;;;;;5026553;28;20233;-77
2023/12/03 08:33:56;;;;;;;11.80;7.40;;;2.50;99.90;;;;;;5025402;28;20233;-77
2023/12/03 08:36:22;;;;;;;9.50;6.87;;;2.60;99.90;;;;;;5030132;28;20228;-76
2023/12/03 08:38:48;;;;;;;12.67;8.10;;;2.60;99.90;;;;;;5029927;28;20520;-74
2023/12/03 08:41:14;;;;;;;14.40;7.32;;;2.70;99.90;;;;;;5013720;28;20189;-74
2023/12/03 08:43:39;;;;;;;11.93;7.00;;;2.80;99.90;;;;;;5013506;28;20570;-75
2023/12/03 08:46:07;;;;;;;11.10;8.87;;;2.90;99.90;;;;;;5030153;28;20687;-74
2023/12/03 08:48:32;;;;;;;13.73;8.77;;;2.90;99.90;;;;;;5030346;28;20181;-75
2023/12/03 08:50:58;;;;;;;10.67;7.10;;;3.00;99.90;;;;;;4997054;28;20219;-75
2023/12/03 08:53:24;;;;;;;11.77;7.70;;;3.00;99.90;;;;;;5031015;28;20193;-75
2023/12/03 08:55:50;;;;;;;12.70;7.23;;;3.10;99.90;;;;;;5021618;28;20198;-75
2023/12/03 08:58:15;;;;;;;15.70;8.53;;;3.10;99.90;;;;;;5028890;28;20534;-75
2023/12/03 09:00:41;;;;;;;13.63;8.10;;;3.10;99.90;;;;;;5026897;28;20181;-75
2023/12/03 09:03:07;;;;;;;13.10;8.47;;;3.10;99.90;;;;;;5029823;28;20668;-75
2023/12/03 09:05:32;;;;;;;13.57;8.73;;;3.10;99.90;;;;;;5013123;28;20223;-75
2023/12/03 09:07:58;;;;;;;12.50;7.67;;;3.10;99.90;;;;;;5029750;28;20173;-75
2023/12/03 09:10:24;;;;;;;14.10;7.80;;;3.10;99.90;;;;;;5031049;28;20184;-76
2023/12/03 09:12:50;;;;;;;12.83;8.40;;;3.00;99.90;;;;;;5031797;28;20613;-75
2023/12/03 09:15:15;;;;;;;12.10;6.88;;;3.00;99.90;;;;;;5013131;28;20177;-75
2023/12/03 09:17:41;;;;;;;14.87;8.17;;;3.00;99.90;;;;;;4980825;28;20182;-74
2023/12/03 09:20:07;;;;;;;12.13;7.53;;;3.00;99.90;;;;;;5030184;28;20204;-75
2023/12/03 09:22:33;;;;;;;15.55;8.20;;;3.00;99.90;;;;;;5046353;28;20209;-75
2023/12/03 09:24:59;;;;;;;11.60;7.07;;;3.00;99.90;;;;;;5030270;28;20671;-75
2023/12/03 09:27:25;;;;;;;12.10;8.40;;;3.00;99.90;;;;;;5030823;28;20608;-74
2023/12/03 09:29:50;;;;;;;13.20;7.93;;;3.00;99.90;;;;;;5015991;28;20592;-74
2023/12/03 09:32:16;;;;;;;12.07;8.27;;;3.10;99.90;;;;;;4994430;28;20221;-74
2023/12/03 09:34:42;;;;;;;11.37;7.40;;;3.20;99.90;;;;;;5027887;28;20182;-75
2023/12/03 09:37:07;;;;;;;11.90;7.50;;;3.20;99.90;;;;;;5030857;28;20192;-75
2023/12/03 09:39:33;;;;;;;11.50;6.73;;;3.30;99.90;;;;;;5013007;28;20174;-75
2023/12/03 09:42:02;;;;;;;9.70;6.30;;;3.40;99.90;;;;;;5012370;28;20216;-75
2023/12/03 09:44:48;;;;;;;12.25;6.75;;;3.50;99.90;;;;;;5010347;28;20228;-75
2023/12/03 09:47:17;;;;;;;14.02;7.75;;;3.50;99.90;;;;;;5016930;28;20810;-75
2023/12/03 09:49:49;;;;;;;10.95;7.60;;;3.60;99.90;;;;;;5034548;28;20181;-75
2023/12/03 09:52:17;;;;;;;12.93;7.07;;;3.70;99.90;;;;;;5034576;28;20544;-75
2023/12/03 09:54:45;;;;;;;15.65;7.05;;;3.70;99.90;;;;;;5016919;28;20213;-76
2023/12/03 09:57:33;;;;;;;9.48;6.55;;;3.80;99.90;;;;;;5038691;28;20173;-75
2023/12/03 10:00:05;;;;;;;12.52;7.75;;;3.90;99.90;;;;;;5034623;28;20208;-76
2023/12/03 10:02:37;;;;;;;12.23;8.38;;;4.00;99.90;;;;;;5020300;28;20237;-76
2023/12/03 10:05:03;;;;;;;12.00;7.15;;;4.00;99.90;;;;;;5019992;28;20180;-77
2023/12/03 10:07:29;;;;;;;10.18;7.47;;;4.10;99.90;;;;;;5036479;28;20200;-76
2023/12/03 10:10:00;;;;;;;11.50;7.38;;;4.10;99.90;;;;;;5052997;28;20191;-74
2023/12/03 10:12:40;;;;;;;9.30;6.25;;;4.20;99.90;;;;;;5054173;28;20212;-74
2023/12/03 10:15:08;;;;;;;11.05;6.95;;;4.30;99.90;;;;;;5053001;28;20181;-74
2023/12/03 10:17:34;;;;;;;14.07;8.20;;;4.40;99.90;;;;;;5036401;28;20173;-75
2023/12/03 10:20:35;;;;;;;14.47;7.10;;;4.40;99.90;;;;;;5054152;28;20173;-74
2023/12/03 10:23:02;;;;;;;11.52;7.10;;;4.50;99.90;;;;;;4988224;28;20571;-74
2023/12/03 10:25:33;;;;;;;13.23;7.60;;;4.50;99.90;;;;;;5053717;28;20196;-74
2023/12/03 10:28:03;;;;;;;11.68;7.50;;;4.50;99.90;;;;;;5052607;28;20212;-74
2023/12/03 10:30:30;;;;;;;11.32;7.15;;;4.60;99.90;;;;;;5036261;28;20181;-74
2023/12/03 10:32:56;;;;;;;17.17;10.38;;;4.60;99.90;;;;;;5038443;28;20254;-75
2023/12/03 10:35:22;;;;;;;18.63;11.05;;;4.70;99.90;;;;;;5054880;28;20165;-75
2023/12/03 10:37:48;;;;;;;16.52;9.95;;;4.60;99.90;;;;;;5036023;28;20199;-75
2023/12/03 10:40:15;;;;;;;14.20;9.18;;;4.50;99.90;;;;;;5019148;28;20177;-76
2023/12/03 10:42:40;;;;;;;16.38;10.43;;;4.50;99.90;;;;;;5052222;28;20212;-75
2023/12/03 10:45:10;;;;;;;18.27;11.97;;;4.50;99.90;;;;;;5047583;28;20186;-77
2023/12/03 10:47:38;;;;;;;16.63;11.80;;;4.40;99.90;;;;;;5021058;28;20178;-76
2023/12/03 10:50:05;;;;;;;15.18;9.48;;;4.30;99.90;;;;;;5025292;28;20205;-76
2023/12/03 10:52:35;;;;;;;18.10;12.25;;;4.30;99.90;;;;;;5053303;28;20736;-76
2023/12/03 10:55:02;;;;;;;16.30;10.77;;;4.30;99.90;;;;;;5053295;28;20184;-76
2023/12/03 10:57:36;;;;;;;16.20;10.68;;;4.30;99.90;;;;;;5052597;28;20165;-76
2023/12/03 11:00:10;;;;;;;16.30;9.50;;;4.20;99.90;;;;;;5052067;28;20204;-76
2023/12/03 11:02:45;;;;;;;14.80;10.50;;;4.30;99.90;;;;;;5051452;28;20212;-77
2023/12/03 11:05:17;;;;;;;14.82;10.20;;;4.30;99.90;;;;;;5051986;28;20181;-76
2023/12/03 11:07:44;;;;;;;15.25;9.30;;;4.40;99.90;;;;;;5053080;28;20588;-76
2023/12/03 11:10:12;;;;;;;18.70;11.57;;;4.50;99.90;;;;;;5055441;28;20205;-76
2023/12/03 11:12:38;;;;;;;19.05;12.55;;;4.50;99.90;;;;;;5051471;28;20295;-77
2023/12/03 11:15:08;;;;;;;18.55;11.10;;;4.50;99.90;;;;;;5035029;28;20177;-77
2023/12/03 11:17:41;;;;;;;18.10;10.27;;;4.50;99.90;;;;;;5052881;28;20260;-77
2023/12/03 11:20:14;;;;;;;14.13;9.77;;;4.50;99.90;;;;;;5018378;28;20204;-77
2023/12/03 11:23:00;;;;;;;12.45;9.45;;;4.60;99.90;;;;;;5034717;28;20227;-77
2023/12/03 11:25:45;;;;;;;11.77;8.25;;;4.60;99.90;;;;;;5018541;28;20207;-77
2023/12/03 11:28:11;;;;;;;13.18;9.02;;;4.60;99.90;;;;;;5034685;28;20177;-78
2023/12/03 11:30:39;;;;;;;12.40;8.97;;;4.70;99.90;;;;;;5052456;28;20517;-76
2023/12/03 11:33:12;;;;;;;13.77;9.57;;;4.70;99.90;;;;;;5017776;28;20209;-76
2023/12/03 11:35:40;;;;;;;12.88;9.05;;;4.80;99.90;;;;;;5051257;28;20181;-76
2023/12/03 11:38:21;;;;;;;15.80;9.60;;;4.80;99.90;;;;;;5052527;28;20188;-77
2023/12/03 11:40:48;;;;;;;12.68;9.10;;;4.90;99.90;;;;;;5052508;28;20272;-76
2023/12/03 11:43:24;;;;;;;17.48;11.45;;;4.90;99.90;;;;;;5052224;28;20169;-76
2023/12/03 11:45:51;;;;;;;16.88;10.25;;;4.80;99.90;;;;;;5030443;28;20227;-76
2023/12/03 11:48:17;;;;;;;17.08;11.35;;;4.80;99.90;;;;;;5056583;28;20205;-77
2023/12/03 11:50:45;;;;;;;17.73;11.40;;;4.60;99.90;;;;;;5034446;28;20180;-76
2023/12/03 11:53:16;;;;;;;15.93;9.68;;;4.60;99.90;;;;;;5034298;28;20193;-77
2023/12/03 11:55:49;;;;;;;15.10;8.98;;;4.60;99.90;;;;;;5034556;28;20177;-77
2023/12/03 11:58:16;;;;;;;14.38;9.05;;;4.70;99.90;;;;;;5052337;28;20177;-75
2023/12/03 12:00:46;;;;;;;14.20;10.13;;;4.80;99.90;;;;;;5034321;28;20248;-75
2023/12/03 12:03:11;;;;;;;11.60;8.90;;;4.80;99.90;;;;;;5051141;28;20192;-76
2023/12/03 12:05:47;;;;;;;10.07;7.63;;;4.80;99.90;;;;;;5052123;28;20821;-76
2023/12/03 12:08:23;;;;;;;11.40;8.20;;;4.80;99.90;;;;;;5033161;28;20192;-75
2023/12/03 12:10:50;;;;;;;10.85;7.72;;;4.80;99.90;;;;;;5051898;28;20640;-75
2023/12/03 12:13:17;;;;;;;11.18;7.97;;;4.80;99.90;;;;;;5051268;28;20577;-74
2023/12/03 12:15:43;;;;;;;10.48;8.18;;;4.80;99.90;;;;;;5017397;28;20575;-74
2023/12/03 12:18:10;;;;;;;10.02;6.90;;;4.80;99.90;;;;;;5033850;28;20177;-74
2023/12/03 12:20:36;;;;;;;11.32;8.40;;;4.80;99.90;;;;;;5017265;28;20177;-74
2023/12/03 12:23:02;;;;;;;12.87;8.37;;;4.80;99.90;;;;;;5049925;28;20291;-74
2023/12/03 12:25:28;;;;;;;11.00;7.57;;;4.80;99.90;;;;;;5052007;28;20583;-73
2023/12/03 12:27:54;;;;;;;13.00;7.90;;;4.80;99.90;;;;;;5046539;28;20177;-75
2023/12/03 12:30:28;;;;;;;11.20;7.07;;;4.90;99.90;;;;;;5064035;28;20169;-74
2023/12/03 12:32:55;;;;;;;13.40;8.32;;;5.00;99.90;;;;;;5048039;28;20220;-75
2023/12/03 12:35:23;;;;;;;14.80;10.98;;;5.00;99.90;;;;;;5033214;28;20268;-73
2023/12/03 12:38:06;;;;;;;10.52;8.85;;;5.00;99.90;;;;;;5037509;28;20173;-74
2023/12/03 12:40:38;;;;;;;13.73;8.98;;;5.00;99.90;;;;;;5053317;28;20272;-74
2023/12/03 12:43:07;;;;;;;13.20;8.40;;;5.10;99.90;;;;;;5047710;28;20555;-74
2023/12/03 12:45:33;;;;;;;14.10;8.43;;;5.10;99.90;;;;;;5050911;28;20651;-74